aviador You're here:

LFOT Decoded Metar

TOURS in FRANCE
Report Time2017-09-24 12:00:00
UTC Time2017-09-24 12:18:55
Flight Rules vfr VFR
Wind130° at 05 kt
W.Decomp.*RWY 20: 1.7 kt HW 4.7 kt LCW
W.Rank130° ranks 22
Current wind is below 130° avg. (5.0)
Visibility9999 m
Phenomena:N/A
Clouds:N/A
Expected CloudBase > 4,400 ft AGL from Temp-Dew spread
CeilingNone
Temp25°C (ISA +11)
Dew Point14°C (51% RH)
AAT24.5°C
QNH1019 hPa
Density Alt1,608 ft
Elevation354 ft
Report Wrong Elevation
Raw Report
METAR LFOT 241200Z AUTO 13005KT 040V170 CAVOK 25/14 Q1019 NOSIG=

Extra information for LFOT:More info

Metar Taf Metar & Taf Last 4 Metars F.Rules Stats Wind Profile Meteogram Temp Stats Airport Information Weather charts Add Link Nearby VenuesMetar ALERT Operation Metar Decoded Social comments